CA-0562 weather

White Cloud Island
Ontario, Canada

Public forecast

Using degrees Celsius for public forecast. Weather courtesy of forecast.io.

METAR (pilot weather report)

Closest report is Wiarton Airport, 7.8 nm (14.4 km) SW. Retrieved 2019/07/21 22:00 UTC (20 minutes ago):

CYVV 212200Z 27012KT 15SM BKN250 22/14 A2992 RMK CI6 WND ESTD SLP134 DENSITY ALT 1800FT

TAF (pilot weather forecast)

Closest forecast is Wiarton Airport, 7.8 nm (14.4 km) SW. Retrieved 2019/07/21 20:00 UTC (2 hours ago):

TAF CYVV 211943Z 2120/2123 27012KT P6SM FEW030 FEW250 RMK NXT FCST WILL BE ISSUED AT 221045Z